This is the latest recevied weather packets stored in our database for station/object DO7ZT-13. If no packets are shown the sender has not sent any weather packets the latest 10 day(s).
| Time | Temp. | Humidity | Pressure | Rain* | Wind** | Luminosity | Snow |
|---|---|---|---|---|---|---|---|
| 1777886108 | 20° C | 45% | 1014.1 hPa | 0 mm | 1.34 m/s, 277° | - | - |
| 1777885820 | 20° C | 44% | 1014.1 hPa | 0 mm | 0.89 m/s, 283° | - | - |
| 1777885508 | 20° C | 42% | 1014.1 hPa | 0 mm | 1.34 m/s, 300° | - | - |
| 1777885220 | 20° C | 43% | 1014 hPa | 0 mm | 0.45 m/s, 222° | - | - |
| 1777884908 | 20° C | 43% | 1014 hPa | 0 mm | 0.45 m/s, 266° | - | - |
| 1777884620 | 20° C | 44% | 1014 hPa | 0 mm | 0.89 m/s, 324° | - | - |
| 1777884308 | 21.11° C | 43% | 1014 hPa | 0 mm | 0.89 m/s, 324° | - | - |
| 1777884020 | 21.11° C | 40% | 1014 hPa | 0 mm | 0.45 m/s, 20° | - | - |
| 1777883708 | 21.11° C | 40% | 1014 hPa | 0 mm | 0.45 m/s, 252° | - | - |
| 1777883421 | 20° C | 43% | 1014 hPa | 0 mm | 0.45 m/s, 252° | - | - |
| 1777883107 | 20° C | 39% | 1014 hPa | 0 mm | 0.89 m/s, 166° | - | - |
| 1777882820 | 20° C | 42% | 1014 hPa | 0 mm | 0.45 m/s, 256° | - | - |
| 1777882507 | 20° C | 43% | 1014 hPa | 0 mm | 0.89 m/s, 275° | - | - |
| 1777882233 | 20° C | 41% | 1014 hPa | 0 mm | 0.45 m/s, 162° | - | - |
| 1777881920 | 20° C | 42% | 1014 hPa | 0 mm | 0.45 m/s, 196° | - | - |
| 1777881608 | 20° C | 44% | 1013.8 hPa | 0 mm | 0.45 m/s, 264° | - | - |
| 1777881320 | 18.89° C | 44% | 1013.8 hPa | 0 mm | 0.89 m/s, 252° | - | - |
| 1777881007 | 18.89° C | 42% | 1013.8 hPa | 0 mm | 0.89 m/s, 257° | - | - |
| 1777880720 | 18.89° C | 43% | 1013.9 hPa | 0 mm | 0.45 m/s, 250° | - | - |
| 1777880408 | 18.89° C | 43% | 1013.9 hPa | 0 mm | 0 m/s | - | - |
| 1777880120 | 18.89° C | 42% | 1013.9 hPa | 0 mm | 1.79 m/s, 144° | - | - |
| 1777879808 | 18.89° C | 43% | 1013.8 hPa | 0 mm | 0 m/s | - | - |
| 1777879520 | 18.89° C | 44% | 1013.8 hPa | 0 mm | 0.45 m/s, 249° | - | - |
| 1777879207 | 18.89° C | 44% | 1013.8 hPa | 0 mm | 0.45 m/s, 206° | - | - |
| 1777878920 | 18.89° C | 43% | 1013.8 hPa | 0 mm | 0.89 m/s, 235° | - | - |
* Rain latest hour (hover to see other rain measurements)
** Current wind speed in m/s (hover to see current wind gust speed)